Аэропорт
Инчхон (RKSI)

 RKSI / ICN

Korea, Republic of
KR-28
Сеул-Инчхон
 37.46910, 126.45100  / 23 ft

 RKSI 182230Z 15004KT 120V180 9999 SCT040 19/14 Q1015 NOSIG
 TAF AMD RKSI 181910Z 1819/1924 26008KT 9999 BKN030 BKN080 TN19/1821Z TX24/1905Z TN17/1921Z TEMPO 1819/1820 33015KT -TSRA SCT015CB BKN025 OVC080 BECMG 1901/1902 29015G25KT CAVOK BECMG 1910/1911 32010KT

2020 © VATRUS division (Privacy Policy)